Time;durP1;ratioP1;P1;durP2;ratioP2;P2;SDS_P1;SDS_P2;PMS_P1;PMS_P2;Temp;Humidity;BMP_temperature;BMP_pressure;BME280_temperature;BME280_humidity;BME280_pressure;Samples;Min_cycle;Max_cycle;Signal;HPM_P1;HPM_P2
2022/03/11 00:00:56;;;;;;;0.10;0.10;;;;;;;;;;5068737;28;20036;-60
2022/03/11 00:03:21;;;;;;;3.25;3.05;;;;;;;;;;5037249;28;20074;-60
2022/03/11 00:05:47;;;;;;;0.10;0.10;;;;;;;;;;5053634;28;20064;-60
2022/03/11 00:08:13;;;;;;;9.05;8.35;;;;;;;;;;5055526;28;20123;-60
2022/03/11 00:10:39;;;;;;;0.65;0.65;;;;;;;;;;5057304;28;20044;-60
2022/03/11 00:13:04;;;;;;;0.10;0.10;;;;;;;;;;5040893;28;20097;-60
2022/03/11 00:15:30;;;;;;;0.10;0.10;;;;;;;;;;5075201;28;20089;-60
2022/03/11 00:17:56;;;;;;;0.43;0.43;;;;;;;;;;5074929;28;20029;-60
2022/03/11 00:20:22;;;;;;;1.00;1.00;;;;;;;;;;5036960;28;20036;-60
2022/03/11 00:22:51;;;;;;;1.38;1.27;;;;;;;;;;5037192;28;20037;-60
2022/03/11 00:25:17;;;;;;;0.73;0.73;;;;;;;;;;5037134;28;20041;-60
2022/03/11 00:27:43;;;;;;;1.58;1.48;;;;;;;;;;5037031;28;20275;-61
2022/03/11 00:30:09;;;;;;;0.10;0.10;;;;;;;;;;5037033;28;20052;-61
2022/03/11 00:32:34;;;;;;;0.65;0.65;;;;;;;;;;5037462;28;20037;-60
2022/03/11 00:35:00;;;;;;;4.13;3.92;;;;;;;;;;5054783;28;20380;-61
2022/03/11 00:37:25;;;;;;;0.70;0.70;;;;;;;;;;5037033;28;20147;-60
2022/03/11 00:39:51;;;;;;;4.32;4.03;;;;;;;;;;5054827;28;20410;-59
2022/03/11 00:42:16;;;;;;;0.10;0.10;;;;;;;;;;5054869;28;20024;-60
2022/03/11 00:44:42;;;;;;;0.15;0.15;;;;;;;;;;5054844;28;20116;-60
2022/03/11 00:47:09;;;;;;;0.10;0.10;;;;;;;;;;5054672;28;20041;-60
2022/03/11 00:49:35;;;;;;;0.20;0.20;;;;;;;;;;5020303;28;20060;-60
2022/03/11 00:52:00;;;;;;;0.10;0.10;;;;;;;;;;5036836;28;20033;-60
2022/03/11 00:54:26;;;;;;;0.40;0.40;;;;;;;;;;5054660;28;20504;-59
2022/03/11 00:56:51;;;;;;;0.10;0.10;;;;;;;;;;5054445;28;20029;-59
2022/03/11 00:59:18;;;;;;;0.10;0.10;;;;;;;;;;5054467;28;20037;-59
2022/03/11 01:01:43;;;;;;;0.20;0.20;;;;;;;;;;5054451;28;20540;-62
2022/03/11 01:04:09;;;;;;;1.23;1.23;;;;;;;;;;5054462;28;20025;-61
2022/03/11 01:06:34;;;;;;;0.20;0.20;;;;;;;;;;5054295;28;20610;-60
2022/03/11 01:09:00;;;;;;;0.20;0.20;;;;;;;;;;5054394;28;20044;-59
2022/03/11 01:11:25;;;;;;;0.10;0.10;;;;;;;;;;5054344;28;20037;-59
2022/03/11 01:13:51;;;;;;;0.10;0.10;;;;;;;;;;5054288;28;20535;-59
2022/03/11 01:16:16;;;;;;;0.13;0.13;;;;;;;;;;5054388;28;20033;-59
2022/03/11 01:18:42;;;;;;;0.10;0.10;;;;;;;;;;5054048;28;20464;-59
2022/03/11 01:21:08;;;;;;;0.10;0.10;;;;;;;;;;5053497;28;20040;-59
2022/03/11 01:23:34;;;;;;;0.10;0.10;;;;;;;;;;5036354;28;20029;-59
2022/03/11 01:26:00;;;;;;;2.05;1.95;;;;;;;;;;5054134;28;20035;-59
2022/03/11 01:28:25;;;;;;;0.10;0.10;;;;;;;;;;5036358;28;20075;-59
2022/03/11 01:30:51;;;;;;;0.10;0.10;;;;;;;;;;5054013;28;20017;-59
2022/03/11 01:33:18;;;;;;;0.10;0.10;;;;;;;;;;5054054;28;20113;-59
2022/03/11 01:35:43;;;;;;;0.10;0.10;;;;;;;;;;5054024;28;20116;-62
2022/03/11 01:38:09;;;;;;;0.10;0.10;;;;;;;;;;5036604;28;20071;-60
2022/03/11 01:40:34;;;;;;;0.10;0.10;;;;;;;;;;5054251;28;20473;-61
2022/03/11 01:43:00;;;;;;;0.30;0.30;;;;;;;;;;5053932;28;20036;-60
2022/03/11 01:45:25;;;;;;;0.40;0.40;;;;;;;;;;5053917;28;20125;-60
2022/03/11 01:47:51;;;;;;;0.10;0.10;;;;;;;;;;5054248;28;20044;-60
2022/03/11 01:50:16;;;;;;;0.10;0.10;;;;;;;;;;5053706;28;20481;-60
2022/03/11 01:52:42;;;;;;;0.10;0.10;;;;;;;;;;5036040;28;20473;-58
2022/03/11 01:55:08;;;;;;;0.10;0.10;;;;;;;;;;5035962;28;20473;-59
2022/03/11 01:57:36;;;;;;;0.10;0.10;;;;;;;;;;5035896;28;20035;-59
2022/03/11 02:00:06;;;;;;;0.20;0.20;;;;;;;;;;5053648;28;20489;-59
2022/03/11 02:02:38;;;;;;;0.10;0.10;;;;;;;;;;5036993;28;20037;-59
2022/03/11 02:05:03;;;;;;;0.10;0.10;;;;;;;;;;5053594;28;20148;-59
2022/03/11 02:07:29;;;;;;;0.10;0.10;;;;;;;;;;5036098;28;20033;-59
2022/03/11 02:09:55;;;;;;;0.10;0.10;;;;;;;;;;5052827;28;20113;-59
2022/03/11 02:12:27;;;;;;;0.63;0.63;;;;;;;;;;5053497;28;20037;-60
2022/03/11 02:14:53;;;;;;;0.43;0.43;;;;;;;;;;5035618;28;20035;-59
2022/03/11 02:17:18;;;;;;;0.10;0.10;;;;;;;;;;5053429;28;20112;-59
2022/03/11 02:19:44;;;;;;;0.10;0.10;;;;;;;;;;5018958;28;20025;-60
2022/03/11 02:22:10;;;;;;;0.10;0.10;;;;;;;;;;5053482;28;20055;-60
2022/03/11 02:24:36;;;;;;;0.22;0.22;;;;;;;;;;5019128;28;20078;-59
2022/03/11 02:27:02;;;;;;;0.10;0.10;;;;;;;;;;5035315;28;20040;-59
2022/03/11 02:29:27;;;;;;;0.10;0.10;;;;;;;;;;5053194;28;20480;-59
2022/03/11 02:31:53;;;;;;;0.10;0.10;;;;;;;;;;5034291;28;20040;-59
2022/03/11 02:34:18;;;;;;;0.10;0.10;;;;;;;;;;5053127;28;20091;-59
2022/03/11 02:36:44;;;;;;;0.10;0.10;;;;;;;;;;5053343;28;20108;-60
2022/03/11 02:39:12;;;;;;;0.10;0.10;;;;;;;;;;5053418;28;20083;-58
2022/03/11 02:41:41;;;;;;;0.10;0.10;;;;;;;;;;5053252;28;20029;-59
2022/03/11 02:44:06;;;;;;;0.10;0.10;;;;;;;;;;5018898;28;20033;-59
2022/03/11 02:46:32;;;;;;;0.10;0.10;;;;;;;;;;5053019;28;20369;-58
2022/03/11 02:48:57;;;;;;;0.10;0.10;;;;;;;;;;5034873;28;20044;-59
2022/03/11 02:51:23;;;;;;;0.38;0.38;;;;;;;;;;5035423;28;20425;-59
2022/03/11 02:53:48;;;;;;;0.40;0.40;;;;;;;;;;5052896;28;20587;-59
2022/03/11 02:56:15;;;;;;;0.10;0.10;;;;;;;;;;5052770;28;20029;-60
2022/03/11 02:58:40;;;;;;;0.10;0.10;;;;;;;;;;5018558;28;20037;-59
2022/03/11 03:01:07;;;;;;;0.10;0.10;;;;;;;;;;5052848;28;20461;-60
2022/03/11 03:03:32;;;;;;;0.10;0.10;;;;;;;;;;5018274;28;20029;-59
2022/03/11 03:05:58;;;;;;;0.20;0.20;;;;;;;;;;5018513;28;20382;-59
2022/03/11 03:08:23;;;;;;;0.10;0.10;;;;;;;;;;5052575;28;20124;-60
2022/03/11 03:10:49;;;;;;;0.10;0.10;;;;;;;;;;5052706;28;20487;-61
2022/03/11 03:13:14;;;;;;;0.10;0.10;;;;;;;;;;5052769;28;20043;-60
2022/03/11 03:15:40;;;;;;;0.10;0.10;;;;;;;;;;5052672;28;20043;-61
2022/03/11 03:18:06;;;;;;;0.10;0.10;;;;;;;;;;5052449;28;20036;-59
2022/03/11 03:20:31;;;;;;;0.10;0.10;;;;;;;;;;5018176;28;20105;-59
2022/03/11 03:22:57;;;;;;;0.10;0.10;;;;;;;;;;5052515;28;20029;-59
2022/03/11 03:25:24;;;;;;;0.10;0.10;;;;;;;;;;5052471;28;20021;-59
2022/03/11 03:27:49;;;;;;;0.50;0.50;;;;;;;;;;5018058;28;20029;-59
2022/03/11 03:30:15;;;;;;;0.10;0.10;;;;;;;;;;5052470;28;20431;-59
2022/03/11 03:32:42;;;;;;;3.22;3.13;;;;;;;;;;5034625;28;20033;-60
2022/03/11 03:35:08;;;;;;;0.10;0.10;;;;;;;;;;5018263;28;20507;-59
2022/03/11 03:37:34;;;;;;;0.10;0.10;;;;;;;;;;5034937;28;20028;-59
2022/03/11 03:40:00;;;;;;;0.10;0.10;;;;;;;;;;5034920;28;20037;-59
2022/03/11 03:42:26;;;;;;;0.10;0.10;;;;;;;;;;5051927;28;20100;-60
2022/03/11 03:44:53;;;;;;;0.10;0.10;;;;;;;;;;5034457;28;20484;-59
2022/03/11 03:47:20;;;;;;;0.43;0.43;;;;;;;;;;5018252;28;20124;-59
2022/03/11 03:49:45;;;;;;;0.10;0.10;;;;;;;;;;5017815;28;20075;-59
2022/03/11 03:52:12;;;;;;;0.15;0.15;;;;;;;;;;5034422;28;20057;-60
2022/03/11 03:54:40;;;;;;;0.10;0.10;;;;;;;;;;5052216;28;20104;-59
2022/03/11 03:57:06;;;;;;;0.10;0.10;;;;;;;;;;5051973;28;20033;-59
2022/03/11 03:59:32;;;;;;;0.10;0.10;;;;;;;;;;5034183;28;20037;-59
2022/03/11 04:01:57;;;;;;;0.10;0.10;;;;;;;;;;5050448;28;20668;-67
2022/03/11 04:04:23;;;;;;;0.10;0.10;;;;;;;;;;5032432;28;20036;-58
2022/03/11 04:06:48;;;;;;;0.30;0.30;;;;;;;;;;5049970;28;20051;-59
2022/03/11 04:09:14;;;;;;;0.10;0.10;;;;;;;;;;5068343;28;20123;-60
2022/03/11 04:11:40;;;;;;;0.10;0.10;;;;;;;;;;5068409;28;20037;-60
2022/03/11 04:14:06;;;;;;;0.15;0.15;;;;;;;;;;5033219;28;20047;-67
2022/03/11 04:16:32;;;;;;;0.20;0.20;;;;;;;;;;5049921;28;20028;-60
2022/03/11 04:18:57;;;;;;;0.40;0.40;;;;;;;;;;5067787;28;20037;-58
2022/03/11 04:21:23;;;;;;;0.10;0.10;;;;;;;;;;5068042;28;20035;-59
2022/03/11 04:23:49;;;;;;;0.13;0.13;;;;;;;;;;5067904;28;20036;-60
2022/03/11 04:26:16;;;;;;;0.75;0.75;;;;;;;;;;5032991;28;20075;-60
2022/03/11 04:28:41;;;;;;;0.10;0.10;;;;;;;;;;5033168;28;20487;-61
2022/03/11 04:31:07;;;;;;;0.10;0.10;;;;;;;;;;5067948;28;20025;-60
2022/03/11 04:33:33;;;;;;;0.10;0.10;;;;;;;;;;5067693;28;20120;-60
2022/03/11 04:35:59;;;;;;;0.10;0.10;;;;;;;;;;5067785;28;20036;-60
2022/03/11 04:38:24;;;;;;;0.10;0.10;;;;;;;;;;5049773;28;20029;-59
2022/03/11 04:40:50;;;;;;;0.40;0.40;;;;;;;;;;5067547;28;20503;-59
2022/03/11 04:43:15;;;;;;;0.10;0.10;;;;;;;;;;5067547;28;20040;-61
2022/03/11 04:45:41;;;;;;;0.10;0.10;;;;;;;;;;5049873;28;20464;-59
2022/03/11 04:48:07;;;;;;;0.10;0.10;;;;;;;;;;5067265;28;20214;-59
2022/03/11 04:50:33;;;;;;;0.10;0.10;;;;;;;;;;5032963;28;20041;-61
2022/03/11 04:52:58;;;;;;;0.10;0.10;;;;;;;;;;5049603;28;20136;-60
2022/03/11 04:55:26;;;;;;;0.20;0.20;;;;;;;;;;5051192;28;20033;-60
2022/03/11 04:57:51;;;;;;;0.10;0.10;;;;;;;;;;5071021;28;20111;-60
2022/03/11 05:00:17;;;;;;;0.10;0.10;;;;;;;;;;5052843;28;20037;-64
2022/03/11 05:02:45;;;;;;;0.10;0.10;;;;;;;;;;5070519;28;20028;-60
2022/03/11 05:05:11;;;;;;;0.10;0.10;;;;;;;;;;5036193;28;20036;-61
2022/03/11 05:07:37;;;;;;;0.10;0.10;;;;;;;;;;5036203;28;20480;-59
2022/03/11 05:10:03;;;;;;;0.10;0.10;;;;;;;;;;5036051;28;20519;-61
2022/03/11 05:12:30;;;;;;;0.10;0.10;;;;;;;;;;5070367;28;20131;-67
2022/03/11 05:14:55;;;;;;;0.10;0.10;;;;;;;;;;5052725;28;20361;-60
2022/03/11 05:17:21;;;;;;;0.10;0.10;;;;;;;;;;5070441;28;20043;-60
2022/03/11 05:19:46;;;;;;;0.10;0.10;;;;;;;;;;5036188;28;20844;-60
2022/03/11 05:22:12;;;;;;;0.10;0.10;;;;;;;;;;5070380;28;20024;-61
2022/03/11 05:24:38;;;;;;;3.33;1.98;;;;;;;;;;5070449;28;20121;-61
2022/03/11 05:27:04;;;;;;;0.10;0.10;;;;;;;;;;5035608;28;20043;-60
2022/03/11 05:29:31;;;;;;;0.10;0.10;;;;;;;;;;5052183;28;20044;-61
2022/03/11 05:31:57;;;;;;;0.25;0.25;;;;;;;;;;5052325;28;20047;-61
2022/03/11 05:34:22;;;;;;;0.10;0.10;;;;;;;;;;5052478;28;20032;-61
2022/03/11 05:36:48;;;;;;;0.10;0.10;;;;;;;;;;5070283;28;20411;-62
2022/03/11 05:39:15;;;;;;;0.10;0.10;;;;;;;;;;5070478;28;20358;-61
2022/03/11 05:41:40;;;;;;;0.10;0.10;;;;;;;;;;5070475;28;20031;-61
2022/03/11 05:44:06;;;;;;;0.10;0.10;;;;;;;;;;5052251;28;20033;-67
2022/03/11 05:46:31;;;;;;;0.10;0.10;;;;;;;;;;5070145;28;20047;-61
2022/03/11 05:48:57;;;;;;;0.10;0.10;;;;;;;;;;5035341;28;20139;-61
2022/03/11 05:51:22;;;;;;;0.10;0.10;;;;;;;;;;5070025;28;20054;-60
2022/03/11 05:53:48;;;;;;;0.52;0.52;;;;;;;;;;5070034;28;20070;-61
2022/03/11 05:56:13;;;;;;;0.10;0.10;;;;;;;;;;5069808;28;20503;-60
2022/03/11 05:58:39;;;;;;;0.10;0.10;;;;;;;;;;5069867;28;20052;-60
2022/03/11 06:01:04;;;;;;;0.10;0.10;;;;;;;;;;5070179;28;20471;-60
2022/03/11 06:03:30;;;;;;;0.10;0.10;;;;;;;;;;5035240;28;20032;-60
2022/03/11 06:05:56;;;;;;;0.20;0.20;;;;;;;;;;5051703;28;20039;-57
2022/03/11 06:08:22;;;;;;;1.63;1.55;;;;;;;;;;5051984;28;20036;-63
2022/03/11 06:10:47;;;;;;;0.17;0.17;;;;;;;;;;5069614;28;20420;-63
2022/03/11 06:13:16;;;;;;;0.10;0.10;;;;;;;;;;5069675;28;20044;-62
2022/03/11 06:15:42;;;;;;;0.10;0.10;;;;;;;;;;5069633;28;20028;-65
2022/03/11 06:18:09;;;;;;;0.10;0.10;;;;;;;;;;5069556;28;20044;-64
2022/03/11 06:20:35;;;;;;;0.10;0.10;;;;;;;;;;5051903;28;20059;-63
2022/03/11 06:23:01;;;;;;;0.10;0.10;;;;;;;;;;5069506;28;20476;-62
2022/03/11 06:25:26;;;;;;;0.63;0.63;;;;;;;;;;5069638;28;20127;-62
2022/03/11 06:27:52;;;;;;;0.10;0.10;;;;;;;;;;5069380;28;20472;-62
2022/03/11 06:30:17;;;;;;;0.10;0.10;;;;;;;;;;5069021;28;20039;-63
2022/03/11 06:32:47;;;;;;;0.10;0.10;;;;;;;;;;5069158;28;20029;-63
2022/03/11 06:35:13;;;;;;;0.10;0.10;;;;;;;;;;5069326;28;20122;-62
2022/03/11 06:37:42;;;;;;;0.10;0.10;;;;;;;;;;5069536;28;20043;-62
2022/03/11 06:40:09;;;;;;;0.10;0.10;;;;;;;;;;5069380;28;20064;-63
2022/03/11 06:42:35;;;;;;;0.10;0.10;;;;;;;;;;5069341;28;20047;-63
2022/03/11 06:45:00;;;;;;;0.10;0.10;;;;;;;;;;5069410;28;20029;-64
2022/03/11 06:47:26;;;;;;;0.10;0.10;;;;;;;;;;5069101;28;20043;-63
2022/03/11 06:49:51;;;;;;;0.10;0.10;;;;;;;;;;5069333;28;20032;-63
2022/03/11 06:52:17;;;;;;;0.10;0.10;;;;;;;;;;5068796;28;20025;-62
2022/03/11 06:54:42;;;;;;;0.10;0.10;;;;;;;;;;5079907;28;20036;-63
2022/03/11 06:57:09;;;;;;;0.10;0.10;;;;;;;;;;5088556;28;20032;-63
2022/03/11 06:59:34;;;;;;;0.10;0.10;;;;;;;;;;5089175;28;20042;-62
2022/03/11 07:01:59;;;;;;;0.10;0.10;;;;;;;;;;5071032;28;20043;-61
2022/03/11 07:04:27;;;;;;;0.10;0.10;;;;;;;;;;5089169;28;20039;-60
2022/03/11 07:06:53;;;;;;;0.10;0.10;;;;;;;;;;5089233;28;20051;-62
2022/03/11 07:09:18;;;;;;;0.10;0.10;;;;;;;;;;5089125;28;20040;-62
2022/03/11 07:11:46;;;;;;;0.10;0.10;;;;;;;;;;5089476;28;20494;-64
2022/03/11 07:14:12;;;;;;;0.10;0.10;;;;;;;;;;5088819;28;20063;-63
2022/03/11 07:16:37;;;;;;;0.10;0.10;;;;;;;;;;5088737;28;20062;-63
2022/03/11 07:19:03;;;;;;;0.10;0.10;;;;;;;;;;5070127;28;20048;-62
2022/03/11 07:21:28;;;;;;;0.10;0.10;;;;;;;;;;5089035;28;20074;-62
2022/03/11 07:23:54;;;;;;;0.10;0.10;;;;;;;;;;5088853;28;20024;-64
2022/03/11 07:26:20;;;;;;;0.63;0.63;;;;;;;;;;5088744;28;20111;-62
2022/03/11 07:28:45;;;;;;;0.20;0.20;;;;;;;;;;5089264;28;20038;-62
2022/03/11 07:31:11;;;;;;;1.75;1.63;;;;;;;;;;5088556;28;20418;-64
2022/03/11 07:33:37;;;;;;;0.40;0.40;;;;;;;;;;5054064;28;20115;-62
2022/03/11 07:36:03;;;;;;;0.13;0.13;;;;;;;;;;5089003;28;20073;-65
2022/03/11 07:38:31;;;;;;;0.10;0.10;;;;;;;;;;5088681;28;20043;-62
2022/03/11 07:40:59;;;;;;;0.20;0.20;;;;;;;;;;5088830;28;20551;-62
2022/03/11 07:43:28;;;;;;;0.20;0.20;;;;;;;;;;5088901;28;20050;-62
2022/03/11 07:45:54;;;;;;;0.20;0.20;;;;;;;;;;5070472;28;20024;-63
2022/03/11 07:48:20;;;;;;;0.30;0.30;;;;;;;;;;5088473;28;20032;-63
2022/03/11 07:50:47;;;;;;;0.25;0.25;;;;;;;;;;5086622;28;20383;-64
2022/03/11 07:53:12;;;;;;;0.30;0.30;;;;;;;;;;5086521;28;20536;-63
2022/03/11 07:55:38;;;;;;;0.30;0.30;;;;;;;;;;5086167;28;20136;-64
2022/03/11 07:58:05;;;;;;;0.20;0.20;;;;;;;;;;5086291;28;20028;-64
2022/03/11 08:00:30;;;;;;;0.22;0.22;;;;;;;;;;5086422;28;20036;-63
2022/03/11 08:02:56;;;;;;;0.20;0.20;;;;;;;;;;5080168;28;20040;-63
2022/03/11 08:05:21;;;;;;;0.20;0.20;;;;;;;;;;5076209;28;20034;-63
2022/03/11 08:07:48;;;;;;;0.30;0.30;;;;;;;;;;5085087;28;20039;-62
2022/03/11 08:10:14;;;;;;;0.20;0.20;;;;;;;;;;5085707;28;20127;-63
2022/03/11 08:12:40;;;;;;;0.10;0.10;;;;;;;;;;5067018;28;20049;-64
2022/03/11 08:15:06;;;;;;;0.20;0.20;;;;;;;;;;5084636;28;20032;-63
2022/03/11 08:17:31;;;;;;;0.20;0.20;;;;;;;;;;5083467;28;20036;-63
2022/03/11 08:19:58;;;;;;;0.20;0.20;;;;;;;;;;5083609;28;20602;-64
2022/03/11 08:22:24;;;;;;;5.03;4.68;;;;;;;;;;5083683;28;20035;-63
2022/03/11 08:24:50;;;;;;;0.20;0.20;;;;;;;;;;5066133;28;20031;-63
2022/03/11 08:27:17;;;;;;;0.30;0.30;;;;;;;;;;5083277;28;20032;-63
2022/03/11 08:29:43;;;;;;;0.28;0.28;;;;;;;;;;5085182;28;20498;-64
2022/03/11 08:32:08;;;;;;;0.30;0.30;;;;;;;;;;5068978;28;20106;-62
2022/03/11 08:34:34;;;;;;;0.45;0.45;;;;;;;;;;5070949;28;20430;-64
2022/03/11 08:37:00;;;;;;;0.20;0.20;;;;;;;;;;5071195;28;20063;-63
2022/03/11 08:39:25;;;;;;;0.30;0.30;;;;;;;;;;5088329;28;20036;-62
2022/03/11 08:41:51;;;;;;;1.02;0.90;;;;;;;;;;5088753;28;20036;-63
2022/03/11 08:44:17;;;;;;;0.20;0.20;;;;;;;;;;5070486;28;20036;-64
2022/03/11 08:46:42;;;;;;;0.85;0.85;;;;;;;;;;5070223;28;20566;-63
2022/03/11 08:49:08;;;;;;;0.30;0.30;;;;;;;;;;5072557;28;20072;-66
2022/03/11 08:51:33;;;;;;;0.22;0.22;;;;;;;;;;5067614;28;20115;-63
2022/03/11 08:53:59;;;;;;;0.32;0.32;;;;;;;;;;5067532;28;20021;-65
2022/03/11 08:56:25;;;;;;;0.32;0.32;;;;;;;;;;5067111;28;20037;-63
2022/03/11 08:58:50;;;;;;;0.30;0.30;;;;;;;;;;5067094;28;20559;-63
2022/03/11 09:01:16;;;;;;;0.30;0.30;;;;;;;;;;5050070;28;20423;-64
2022/03/11 09:03:42;;;;;;;0.20;0.20;;;;;;;;;;5066895;28;20549;-64
2022/03/11 09:06:07;;;;;;;0.17;0.17;;;;;;;;;;5050043;28;20111;-64
2022/03/11 09:08:32;;;;;;;0.20;0.20;;;;;;;;;;5068852;28;20476;-64
2022/03/11 09:10:58;;;;;;;0.20;0.20;;;;;;;;;;5069472;28;20391;-64
2022/03/11 09:13:23;;;;;;;2.33;1.08;;;;;;;;;;5069136;28;20457;-65
2022/03/11 09:15:49;;;;;;;0.20;0.20;;;;;;;;;;5068899;28;20013;-64
2022/03/11 09:18:14;;;;;;;0.30;0.30;;;;;;;;;;5069843;28;20036;-62
2022/03/11 09:20:40;;;;;;;0.20;0.20;;;;;;;;;;5068859;28;20066;-65
2022/03/11 09:23:07;;;;;;;0.20;0.20;;;;;;;;;;5069024;28;20365;-64
2022/03/11 09:25:32;;;;;;;0.20;0.20;;;;;;;;;;5070346;28;20119;-63
2022/03/11 09:27:58;;;;;;;0.20;0.20;;;;;;;;;;5070184;28;20488;-63
2022/03/11 09:30:23;;;;;;;0.30;0.30;;;;;;;;;;5069906;28;20392;-63
2022/03/11 09:32:49;;;;;;;0.73;0.70;;;;;;;;;;5070410;28;20033;-63
2022/03/11 09:35:15;;;;;;;0.10;0.10;;;;;;;;;;5070429;28;20856;-64
2022/03/11 09:37:41;;;;;;;1.15;0.65;;;;;;;;;;5070661;28;20032;-64
2022/03/11 09:40:07;;;;;;;0.50;0.50;;;;;;;;;;5069641;28;20047;-65
2022/03/11 09:42:33;;;;;;;0.30;0.30;;;;;;;;;;5070199;28;20038;-64
2022/03/11 09:44:58;;;;;;;0.65;0.65;;;;;;;;;;5068047;28;20111;-65
2022/03/11 09:47:24;;;;;;;0.32;0.32;;;;;;;;;;5047650;28;20082;-64
2022/03/11 09:49:50;;;;;;;0.20;0.20;;;;;;;;;;5049259;28;20060;-65
2022/03/11 09:52:16;;;;;;;0.65;0.63;;;;;;;;;;5046250;28;20385;-65
2022/03/11 09:54:42;;;;;;;0.30;0.30;;;;;;;;;;5047328;28;20372;-64
2022/03/11 09:57:08;;;;;;;0.75;0.75;;;;;;;;;;5048761;28;20033;-64
2022/03/11 09:59:33;;;;;;;0.40;0.40;;;;;;;;;;5049121;28;20036;-65
2022/03/11 10:01:59;;;;;;;6.28;0.75;;;;;;;;;;5048265;28;20072;-65
2022/03/11 10:04:25;;;;;;;1.35;0.73;;;;;;;;;;5049089;28;20045;-63
2022/03/11 10:06:52;;;;;;;0.20;0.20;;;;;;;;;;5049468;28;20044;-65
2022/03/11 10:09:17;;;;;;;0.57;0.52;;;;;;;;;;5049675;28;20086;-64
2022/03/11 10:11:43;;;;;;;0.10;0.10;;;;;;;;;;5049172;28;20041;-65
2022/03/11 10:14:09;;;;;;;0.20;0.20;;;;;;;;;;5049137;28;20052;-65
2022/03/11 10:16:35;;;;;;;1.45;1.05;;;;;;;;;;5049311;28;20029;-64
2022/03/11 10:19:03;;;;;;;1.45;0.75;;;;;;;;;;5048755;28;20037;-62
2022/03/11 10:21:33;;;;;;;5.93;1.17;;;;;;;;;;5049133;28;20120;-61
2022/03/11 10:23:59;;;;;;;0.85;0.63;;;;;;;;;;5047595;28;20033;-62
2022/03/11 10:26:41;;;;;;;0.20;0.20;;;;;;;;;;5048528;28;20047;-62
2022/03/11 10:29:11;;;;;;;1.60;1.17;;;;;;;;;;5048983;28;20093;-63
2022/03/11 10:31:45;;;;;;;0.90;0.88;;;;;;;;;;5047466;28;20119;-64
2022/03/11 10:34:10;;;;;;;0.20;0.20;;;;;;;;;;5048109;28;20064;-64
2022/03/11 10:36:36;;;;;;;0.73;0.63;;;;;;;;;;5047800;28;20075;-63
2022/03/11 10:39:30;;;;;;;1.00;0.75;;;;;;;;;;5047298;28;20094;-61
2022/03/11 10:41:57;;;;;;;0.10;0.10;;;;;;;;;;5048242;28;20041;-63
2022/03/11 10:44:27;;;;;;;0.20;0.20;;;;;;;;;;5048318;28;20695;-64
2022/03/11 10:46:53;;;;;;;;;;;;;;;;;;5048935;28;20044;-63
2022/03/11 10:49:33;;;;;;;1.38;1.17;;;;;;;;;;5048443;28;20360;-62
2022/03/11 10:52:02;;;;;;;0.20;0.20;;;;;;;;;;5047642;28;20044;-63
2022/03/11 10:54:28;;;;;;;0.30;0.30;;;;;;;;;;5048704;28;20033;-63
2022/03/11 10:57:06;;;;;;;4.47;4.25;;;;;;;;;;5048661;28;20037;-63
2022/03/11 10:59:32;;;;;;;0.30;0.30;;;;;;;;;;5048928;28;20119;-63
2022/03/11 11:01:58;;;;;;;1.20;0.82;;;;;;;;;;5048694;28;20116;-64
2022/03/11 11:04:24;;;;;;;0.30;0.30;;;;;;;;;;5048502;28;20029;-63
2022/03/11 11:06:50;;;;;;;0.20;0.20;;;;;;;;;;5048847;28;20108;-63
2022/03/11 11:09:17;;;;;;;0.30;0.30;;;;;;;;;;5048631;28;20049;-64
2022/03/11 11:11:42;;;;;;;1.25;1.25;;;;;;;;;;5047549;28;20033;-63
2022/03/11 11:14:09;;;;;;;0.50;0.50;;;;;;;;;;5048177;28;20044;-62
2022/03/11 11:16:42;;;;;;;1.38;1.27;;;;;;;;;;5047547;28;20119;-62
2022/03/11 11:19:08;;;;;;;0.47;0.47;;;;;;;;;;5048392;28;20040;-63
2022/03/11 11:21:34;;;;;;;0.20;0.20;;;;;;;;;;5048584;28;20064;-62
2022/03/11 11:24:00;;;;;;;0.50;0.50;;;;;;;;;;5048374;28;20075;-61
2022/03/11 11:26:26;;;;;;;0.82;0.75;;;;;;;;;;5048263;28;20040;-61
2022/03/11 11:28:53;;;;;;;0.30;0.30;;;;;;;;;;5048090;28;20041;-62
2022/03/11 11:31:21;;;;;;;0.30;0.30;;;;;;;;;;5046800;28;20029;-61
2022/03/11 11:33:47;;;;;;;0.20;0.20;;;;;;;;;;5048106;28;20499;-62
2022/03/11 11:36:13;;;;;;;0.50;0.40;;;;;;;;;;5047287;28;20025;-62
2022/03/11 11:38:42;;;;;;;0.22;0.22;;;;;;;;;;5048376;28;20485;-62
2022/03/11 11:41:33;;;;;;;0.30;0.30;;;;;;;;;;5047497;28;20029;-63
2022/03/11 11:44:06;;;;;;;0.40;0.40;;;;;;;;;;5045094;28;20041;-63
2022/03/11 11:46:33;;;;;;;0.30;0.30;;;;;;;;;;5048069;28;20056;-63
2022/03/11 11:49:00;;;;;;;0.75;0.75;;;;;;;;;;5048022;28;20044;-66
2022/03/11 11:51:32;;;;;;;0.20;0.20;;;;;;;;;;5047663;28;20037;-62
2022/03/11 11:54:08;;;;;;;0.45;0.43;;;;;;;;;;5047662;28;20111;-64
2022/03/11 11:56:36;;;;;;;0.38;0.38;;;;;;;;;;5047975;28;20033;-63
2022/03/11 11:59:20;;;;;;;0.30;0.30;;;;;;;;;;5046436;28;20087;-64
2022/03/11 12:01:52;;;;;;;0.47;0.47;;;;;;;;;;5047647;28;20477;-62
2022/03/11 12:04:17;;;;;;;1.30;1.20;;;;;;;;;;5049442;28;20069;-62
2022/03/11 12:07:02;;;;;;;0.75;0.55;;;;;;;;;;5049544;28;20413;-62
2022/03/11 12:12:32;;;;;;;0.82;0.82;;;;;;;;;;5049704;28;20277;-62
2022/03/11 12:14:58;;;;;;;0.68;0.45;;;;;;;;;;5051545;28;20041;-62
2022/03/11 12:17:39;;;;;;;11.27;0.77;;;;;;;;;;5051727;28;20140;-63
2022/03/11 12:20:23;;;;;;;0.80;0.73;;;;;;;;;;5050679;28;20037;-62
2022/03/11 12:22:52;;;;;;;0.43;0.43;;;;;;;;;;5050921;28;20094;-62
2022/03/11 12:25:21;;;;;;;0.33;0.33;;;;;;;;;;5050063;28;20029;-63
2022/03/11 12:28:07;;;;;;;1.30;0.82;;;;;;;;;;5050493;28;20484;-63
2022/03/11 12:30:38;;;;;;;0.35;0.35;;;;;;;;;;5043395;28;20496;-63
2022/03/11 12:33:05;;;;;;;0.20;0.20;;;;;;;;;;5049410;28;20064;-63
2022/03/11 12:35:30;;;;;;;0.30;0.30;;;;;;;;;;5056874;28;20028;-62
2022/03/11 12:37:56;;;;;;;0.50;0.50;;;;;;;;;;5078819;28;20376;-62
2022/03/11 12:40:22;;;;;;;0.70;0.70;;;;;;;;;;5088048;28;20500;-62
2022/03/11 12:42:48;;;;;;;2.38;1.40;;;;;;;;;;5070540;28;20132;-64
2022/03/11 12:45:28;;;;;;;1.02;0.93;;;;;;;;;;5088726;28;20066;-64
2022/03/11 12:47:53;;;;;;;0.60;0.55;;;;;;;;;;5080387;28;20044;-63
2022/03/11 12:50:21;;;;;;;0.50;0.50;;;;;;;;;;5088599;28;20040;-62
2022/03/11 12:52:47;;;;;;;0.57;0.57;;;;;;;;;;5090176;28;20107;-62
2022/03/11 12:55:19;;;;;;;2.55;1.48;;;;;;;;;;5090419;28;20114;-63
2022/03/11 12:57:44;;;;;;;0.38;0.38;;;;;;;;;;5090939;28;20036;-63
2022/03/11 13:00:22;;;;;;;0.20;0.20;;;;;;;;;;5088663;28;20053;-61
2022/03/11 13:02:49;;;;;;;0.20;0.20;;;;;;;;;;5089764;28;20476;-62
2022/03/11 13:05:19;;;;;;;0.40;0.40;;;;;;;;;;5090668;28;20142;-62
2022/03/11 13:07:45;;;;;;;0.43;0.43;;;;;;;;;;5090216;28;20036;-63
2022/03/11 13:10:18;;;;;;;1.27;1.17;;;;;;;;;;5070598;28;20042;-62
2022/03/11 13:12:44;;;;;;;0.50;0.50;;;;;;;;;;5072381;28;20043;-62
2022/03/11 13:15:10;;;;;;;0.20;0.20;;;;;;;;;;5089065;28;20036;-66
2022/03/11 13:17:39;;;;;;;0.98;0.80;;;;;;;;;;5089390;28;20032;-63
2022/03/11 13:20:05;;;;;;;2.35;1.10;;;;;;;;;;5082442;28;20526;-64
2022/03/11 13:22:31;;;;;;;0.40;0.40;;;;;;;;;;5073742;28;20028;-62
2022/03/11 13:25:04;;;;;;;0.32;0.32;;;;;;;;;;5068514;28;20097;-62
2022/03/11 13:27:38;;;;;;;0.45;0.45;;;;;;;;;;5052158;28;20086;-62
2022/03/11 13:30:05;;;;;;;1.25;1.25;;;;;;;;;;5069798;28;20036;-61
2022/03/11 13:32:30;;;;;;;0.60;0.50;;;;;;;;;;5070359;28;20122;-62
2022/03/11 13:34:56;;;;;;;3.78;0.98;;;;;;;;;;5070668;28;20059;-61
2022/03/11 13:37:22;;;;;;;0.22;0.22;;;;;;;;;;5068959;28;20028;-61
2022/03/11 13:40:05;;;;;;;0.90;0.85;;;;;;;;;;5069846;28;20159;-60
2022/03/11 13:42:31;;;;;;;0.82;0.82;;;;;;;;;;5070414;28;20036;-61
2022/03/11 13:45:03;;;;;;;0.52;0.50;;;;;;;;;;5070423;28;20039;-61
2022/03/11 13:47:29;;;;;;;0.40;0.40;;;;;;;;;;5070486;28;20102;-62
2022/03/11 13:49:54;;;;;;;0.25;0.25;;;;;;;;;;5069958;28;20488;-61
2022/03/11 13:52:21;;;;;;;0.32;0.32;;;;;;;;;;5069337;28;20345;-61
2022/03/11 13:54:48;;;;;;;0.28;0.28;;;;;;;;;;5069850;28;20032;-61
2022/03/11 13:57:18;;;;;;;0.50;0.50;;;;;;;;;;5070046;28;20059;-61
2022/03/11 13:59:44;;;;;;;0.50;0.50;;;;;;;;;;5070116;28;20103;-61
2022/03/11 14:02:15;;;;;;;2.15;0.45;;;;;;;;;;5069659;28;20037;-62
2022/03/11 14:04:40;;;;;;;0.20;0.20;;;;;;;;;;5069760;28;20139;-62
2022/03/11 14:07:07;;;;;;;1.00;0.52;;;;;;;;;;5069987;28;20120;-63
2022/03/11 14:09:32;;;;;;;0.38;0.38;;;;;;;;;;5069705;28;20067;-61
2022/03/11 14:11:58;;;;;;;0.38;0.35;;;;;;;;;;5069940;28;20024;-61
2022/03/11 14:14:30;;;;;;;0.30;0.30;;;;;;;;;;5067265;28;20043;-61
2022/03/11 14:16:57;;;;;;;0.20;0.20;;;;;;;;;;5049664;28;20489;-61
2022/03/11 14:19:23;;;;;;;0.20;0.20;;;;;;;;;;5049965;28;20040;-60
2022/03/11 14:21:49;;;;;;;0.20;0.20;;;;;;;;;;5049438;28;20059;-60
2022/03/11 14:24:14;;;;;;;1.60;0.70;;;;;;;;;;5031484;28;20481;-61
2022/03/11 14:26:40;;;;;;;2.80;0.80;;;;;;;;;;5049228;28;20127;-60
2022/03/11 14:29:05;;;;;;;1.98;1.85;;;;;;;;;;5049434;28;20155;-60
2022/03/11 14:31:32;;;;;;;0.20;0.20;;;;;;;;;;5049363;28;20025;-60
2022/03/11 14:33:58;;;;;;;10.18;1.58;;;;;;;;;;5049222;28;20045;-59
2022/03/11 14:36:24;;;;;;;0.20;0.20;;;;;;;;;;5048605;28;20033;-61
2022/03/11 14:38:49;;;;;;;0.20;0.20;;;;;;;;;;5049440;28;20035;-63
2022/03/11 14:41:15;;;;;;;0.20;0.20;;;;;;;;;;5031294;28;20479;-61
2022/03/11 14:43:42;;;;;;;0.20;0.20;;;;;;;;;;5048827;28;20461;-61